Time;durP1;ratioP1;P1;durP2;ratioP2;P2;SDS_P1;SDS_P2;PMS_P1;PMS_P2;Temp;Humidity;BMP_temperature;BMP_pressure;BME280_temperature;BME280_humidity;BME280_pressure;Samples;Min_cycle;Max_cycle;Signal;HPM_P1;HPM_P2
2023/02/01 00:01:09;;;;;;;7.40;3.10;;;4.30;1.00;;;;;;5013748;28;20208;-77
2023/02/01 00:03:38;;;;;;;17.58;4.20;;;4.30;1.00;;;;;;5013253;28;20211;-77
2023/02/01 00:06:05;;;;;;;18.05;5.13;;;4.40;1.00;;;;;;5012999;28;20559;-76
2023/02/01 00:08:33;;;;;;;10.65;3.60;;;4.40;1.00;;;;;;5014384;28;20714;-77
2023/02/01 00:11:01;;;;;;;19.63;4.00;;;4.40;1.00;;;;;;5017018;28;20188;-78
2023/02/01 00:13:31;;;;;;;21.23;6.00;;;4.40;1.00;;;;;;5017623;28;20204;-78
2023/02/01 00:16:04;;;;;;;16.02;4.00;;;4.40;99.90;;;;;;5017064;28;20189;-78
2023/02/01 00:18:31;;;;;;;13.32;3.90;;;4.40;99.90;;;;;;5019389;28;20236;-82
2023/02/01 00:20:58;;;;;;;22.42;4.25;;;4.50;99.90;;;;;;5022465;28;20210;-83
2023/02/01 00:23:25;;;;;;;13.40;3.65;;;4.50;99.90;;;;;;5022618;28;20575;-83
2023/02/01 00:25:52;;;;;;;9.40;3.15;;;4.50;99.90;;;;;;5021433;28;20211;-82
2023/02/01 00:28:19;;;;;;;13.65;3.92;;;4.50;99.90;;;;;;5021881;28;20204;-82
2023/02/01 00:30:47;;;;;;;8.10;3.50;;;4.50;99.90;;;;;;5021184;28;20212;-81
2023/02/01 00:33:14;;;;;;;13.48;4.05;;;4.50;99.90;;;;;;5021716;28;20215;-81
2023/02/01 00:35:40;;;;;;;15.05;4.00;;;4.50;99.90;;;;;;5020690;28;20209;-82
2023/02/01 00:38:07;;;;;;;14.73;3.70;;;4.50;99.90;;;;;;5021180;28;20699;-81
2023/02/01 00:40:34;;;;;;;10.05;3.70;;;4.50;99.90;;;;;;5021355;28;20209;-82
2023/02/01 00:43:02;;;;;;;13.27;3.33;;;4.50;99.90;;;;;;5022369;28;20262;-81
2023/02/01 00:45:29;;;;;;;12.30;3.13;;;4.40;99.90;;;;;;5022856;28;20207;-80
2023/02/01 00:47:57;;;;;;;14.13;3.65;;;4.30;99.90;;;;;;5030130;28;20287;-81
2023/02/01 00:50:24;;;;;;;11.43;3.88;;;4.20;99.90;;;;;;5027700;28;20254;-80
2023/02/01 00:52:50;;;;;;;10.07;2.85;;;4.20;99.90;;;;;;5020402;28;20276;-80
2023/02/01 00:55:17;;;;;;;9.85;3.15;;;4.30;99.90;;;;;;5020002;28;20215;-81
2023/02/01 00:57:44;;;;;;;9.60;3.15;;;4.30;99.90;;;;;;5020262;28;20605;-81
2023/02/01 01:00:12;;;;;;;9.70;2.83;;;4.30;99.90;;;;;;5019475;28;20256;-82
2023/02/01 01:02:39;;;;;;;12.32;2.67;;;4.30;99.90;;;;;;5021059;28;20200;-81
2023/02/01 01:05:08;;;;;;;16.40;4.10;;;4.30;99.90;;;;;;5020726;28;20295;-80
2023/02/01 01:07:35;;;;;;;9.60;3.35;;;4.20;99.90;;;;;;5020757;28;20663;-80
2023/02/01 01:10:01;;;;;;;13.80;2.92;;;4.20;99.90;;;;;;5035628;22;20231;-84
2023/02/01 01:12:28;;;;;;;11.00;3.50;;;4.10;99.90;;;;;;5022553;28;20292;-84
2023/02/01 01:14:55;;;;;;;21.15;3.55;;;4.10;99.90;;;;;;5019915;28;20212;-83
2023/02/01 01:17:22;;;;;;;8.70;2.83;;;4.10;99.90;;;;;;5019124;28;20228;-84
2023/02/01 01:19:49;;;;;;;8.40;2.50;;;4.10;99.90;;;;;;5028964;28;20292;-83
2023/02/01 01:22:17;;;;;;;8.35;2.80;;;3.90;99.90;;;;;;5029523;28;20204;-84
2023/02/01 01:24:44;;;;;;;10.48;3.15;;;4.00;99.90;;;;;;5022629;28;20215;-84
2023/02/01 01:27:11;;;;;;;11.82;3.28;;;4.10;99.90;;;;;;5022113;28;20208;-85
2023/02/01 01:29:38;;;;;;;15.15;2.72;;;4.00;99.90;;;;;;5021818;28;20235;-84
2023/02/01 01:32:05;;;;;;;6.88;2.78;;;4.10;99.90;;;;;;5022723;28;20674;-85
2023/02/01 01:34:32;;;;;;;5.97;2.30;;;4.10;99.90;;;;;;5022156;28;20612;-84
2023/02/01 01:36:59;;;;;;;16.17;3.58;;;4.10;99.90;;;;;;5028743;28;20582;-85
2023/02/01 01:39:27;;;;;;;7.90;4.57;;;4.10;99.90;;;;;;5029633;28;20235;-84
2023/02/01 01:41:54;;;;;;;14.95;3.75;;;4.10;99.90;;;;;;5037039;28;20205;-83
2023/02/01 01:44:59;;;;;;;7.57;3.63;;;4.10;99.90;;;;;;5037853;28;20269;-83
2023/02/01 01:47:29;;;;;;;15.18;3.10;;;4.10;99.90;;;;;;5037754;28;20227;-83
2023/02/01 01:49:56;;;;;;;10.88;3.70;;;4.10;99.90;;;;;;5036998;28;20296;-84
2023/02/01 01:52:24;;;;;;;12.90;4.13;;;4.20;99.90;;;;;;5035312;28;20227;-84
2023/02/01 01:54:53;;;;;;;10.63;2.55;;;4.10;99.90;;;;;;5036860;28;20204;-84
2023/02/01 01:57:27;;;;;;;22.60;4.75;;;4.20;99.90;;;;;;5039264;28;20217;-84
2023/02/01 01:59:58;;;;;;;19.63;4.55;;;4.20;99.90;;;;;;5024947;28;20220;-84
2023/02/01 02:02:25;;;;;;;8.70;2.80;;;4.20;99.90;;;;;;5024131;28;20216;-84
2023/02/01 02:04:52;;;;;;;12.32;3.38;;;4.20;99.90;;;;;;5022234;28;20556;-84
2023/02/01 02:07:24;;;;;;;17.50;3.35;;;4.30;99.90;;;;;;5022555;28;20212;-84
2023/02/01 02:09:52;;;;;;;10.40;3.03;;;4.30;99.90;;;;;;5020689;28;20794;-82
2023/02/01 02:12:19;;;;;;;13.73;3.35;;;4.40;99.90;;;;;;5019730;28;20652;-83
2023/02/01 02:14:46;;;;;;;9.80;3.63;;;4.30;97.60;;;;;;5019804;28;20219;-82
2023/02/01 02:17:38;;;;;;;12.43;2.65;;;4.30;92.30;;;;;;5018883;28;20207;-83
2023/02/01 02:20:31;;;;;;;10.90;3.70;;;4.40;27.50;;;;;;5016540;28;20307;-81
2023/02/01 02:23:34;;;;;;;9.27;3.00;;;4.50;17.10;;;;;;5018995;28;20189;-82
2023/02/01 02:26:25;;;;;;;5.57;2.25;;;4.40;1.30;;;;;;5017934;28;20566;-81
2023/02/01 02:29:29;;;;;;;6.75;2.67;;;4.40;1.00;;;;;;5019927;28;20217;-82
2023/02/01 02:32:25;;;;;;;7.60;2.60;;;4.50;1.00;;;;;;5018595;28;20188;-82
2023/02/01 02:34:58;;;;;;;12.70;3.40;;;4.50;1.00;;;;;;5020156;28;20208;-81
2023/02/01 02:37:33;;;;;;;18.95;3.42;;;4.50;1.00;;;;;;5038331;28;20216;-83
2023/02/01 02:40:07;;;;;;;6.90;2.22;;;4.40;1.00;;;;;;5033380;28;20228;-82
2023/02/01 02:48:31;;;;;;;12.20;3.38;;;4.60;35.40;;;;;;5026732;28;20251;-80
2023/02/01 03:04:57;;;;;;;8.85;2.80;;;4.50;1.00;;;;;;5020559;28;20570;-82
2023/02/01 03:07:58;;;;;;;10.50;3.60;;;4.50;1.00;;;;;;5019315;28;20212;-82
2023/02/01 03:10:33;;;;;;;16.42;4.18;;;4.50;1.00;;;;;;5018369;28;20228;-83
2023/02/01 03:13:03;;;;;;;15.18;3.33;;;4.50;1.00;;;;;;5019548;28;20188;-83
2023/02/01 03:15:37;;;;;;;11.48;2.70;;;4.50;1.00;;;;;;5025948;28;20287;-80
2023/02/01 03:18:11;;;;;;;7.68;3.08;;;4.50;1.00;;;;;;5029840;28;20247;-81
2023/02/01 03:20:41;;;;;;;16.95;3.60;;;4.60;1.00;;;;;;5019880;28;20262;-84
2023/02/01 03:23:11;;;;;;;19.15;3.45;;;4.60;1.00;;;;;;5023844;28;20693;-82
2023/02/01 03:25:38;;;;;;;14.50;4.90;;;4.60;1.00;;;;;;5019044;28;20635;-83
2023/02/01 03:28:09;;;;;;;16.00;3.45;;;4.60;1.00;;;;;;5018465;28;20207;-83
2023/02/01 03:30:38;;;;;;;11.70;3.30;;;4.60;1.00;;;;;;5018333;28;20232;-83
2023/02/01 03:33:13;;;;;;;17.70;4.47;;;4.60;1.00;;;;;;5023134;28;20252;-83
2023/02/01 03:35:47;;;;;;;11.60;4.43;;;4.60;1.00;;;;;;5037919;28;20221;-82
2023/02/01 03:38:22;;;;;;;16.33;4.25;;;4.60;1.00;;;;;;5037518;28;20197;-82
2023/02/01 03:40:53;;;;;;;13.93;3.20;;;4.60;1.00;;;;;;5026375;28;20319;-83
2023/02/01 03:43:22;;;;;;;12.18;3.55;;;4.60;1.00;;;;;;5028233;28;20192;-83
2023/02/01 03:45:53;;;;;;;15.20;5.57;;;4.60;1.00;;;;;;5030970;28;20272;-83
2023/02/01 03:48:24;;;;;;;14.82;5.35;;;4.60;1.00;;;;;;5029560;28;20228;-83
2023/02/01 03:50:57;;;;;;;14.88;3.17;;;4.60;1.00;;;;;;5028530;28;20231;-83
2023/02/01 03:53:27;;;;;;;14.48;4.43;;;4.60;1.00;;;;;;5026642;28;20252;-82
2023/02/01 03:55:55;;;;;;;12.18;3.42;;;4.60;1.00;;;;;;5028053;28;20235;-85
2023/02/01 03:58:23;;;;;;;13.93;4.50;;;4.60;1.00;;;;;;5025009;28;20220;-84
2023/02/01 04:00:54;;;;;;;8.25;3.88;;;4.60;1.00;;;;;;5025150;28;20224;-83
2023/02/01 04:03:22;;;;;;;10.52;3.22;;;4.70;1.00;;;;;;5024563;28;20276;-83
2023/02/01 04:05:49;;;;;;;15.75;3.03;;;4.70;1.00;;;;;;5024454;28;20208;-82
2023/02/01 04:08:16;;;;;;;13.85;3.80;;;4.70;1.00;;;;;;5024571;28;20272;-81
2023/02/01 04:10:44;;;;;;;12.63;3.35;;;4.70;1.00;;;;;;5024739;28;20303;-83
2023/02/01 04:13:11;;;;;;;19.80;5.35;;;4.80;1.00;;;;;;5024765;28;20215;-83
2023/02/01 04:15:38;;;;;;;19.77;4.32;;;4.80;1.00;;;;;;5024416;28;20215;-83
2023/02/01 04:18:05;;;;;;;11.57;3.42;;;4.80;1.00;;;;;;5025382;28;20234;-83
2023/02/01 04:20:32;;;;;;;15.02;3.55;;;4.80;1.00;;;;;;5024945;28;20228;-84
2023/02/01 04:22:59;;;;;;;11.88;3.95;;;4.90;1.00;;;;;;5024502;28;20670;-82
2023/02/01 04:25:26;;;;;;;15.43;3.58;;;4.90;1.00;;;;;;5040757;28;20208;-82
2023/02/01 04:27:54;;;;;;;19.10;4.13;;;4.90;1.00;;;;;;5041105;28;20476;-81
2023/02/01 04:30:21;;;;;;;14.85;3.65;;;4.90;1.00;;;;;;5042274;28;20216;-82
2023/02/01 04:32:48;;;;;;;16.90;4.20;;;4.90;1.00;;;;;;5034806;28;20244;-83
2023/02/01 04:35:15;;;;;;;12.73;3.97;;;4.90;1.00;;;;;;5033054;28;20662;-84
2023/02/01 04:37:41;;;;;;;21.88;4.55;;;5.00;1.00;;;;;;5028482;28;20264;-82
2023/02/01 04:40:10;;;;;;;13.25;3.55;;;5.00;1.00;;;;;;5023544;28;20228;-82
2023/02/01 04:42:36;;;;;;;13.50;3.80;;;5.00;1.00;;;;;;5022378;28;20212;-82
2023/02/01 04:45:06;;;;;;;12.02;3.42;;;5.00;1.00;;;;;;5022875;28;20205;-83
2023/02/01 04:47:33;;;;;;;20.60;4.25;;;5.00;1.00;;;;;;5022834;28;20295;-82
2023/02/01 04:49:59;;;;;;;13.43;4.05;;;5.00;1.00;;;;;;5023738;28;20248;-82
2023/02/01 04:52:27;;;;;;;11.77;4.95;;;5.00;1.00;;;;;;5024451;28;20374;-82
2023/02/01 04:54:57;;;;;;;15.73;3.25;;;5.00;1.00;;;;;;5036006;28;20204;-82
2023/02/01 04:57:24;;;;;;;12.40;3.83;;;5.10;1.00;;;;;;5039011;28;20255;-82
2023/02/01 04:59:50;;;;;;;14.95;4.07;;;5.10;1.00;;;;;;5029244;28;20228;-82
2023/02/01 05:02:19;;;;;;;14.93;4.40;;;5.10;99.90;;;;;;5023059;28;20200;-83
2023/02/01 05:04:45;;;;;;;12.95;4.28;;;5.10;1.00;;;;;;5035977;28;20199;-83
2023/02/01 05:07:12;;;;;;;11.73;4.45;;;5.10;1.00;;;;;;5035950;28;20253;-83
2023/02/01 05:09:39;;;;;;;14.15;3.80;;;5.10;1.00;;;;;;5036015;28;20219;-80
2023/02/01 05:14:51;;;;;;;12.25;3.80;;;5.20;1.00;;;;;;5034295;28;20220;-82
2023/02/01 05:17:19;;;;;;;18.13;3.05;;;5.10;1.00;;;;;;5034727;28;20214;-82
2023/02/01 05:19:46;;;;;;;15.77;4.20;;;5.20;99.90;;;;;;5035155;28;20253;-82
2023/02/01 05:22:13;;;;;;;11.77;4.18;;;5.20;99.90;;;;;;5029087;28;20371;-82
2023/02/01 05:24:39;;;;;;;9.20;3.75;;;5.20;99.90;;;;;;5016975;28;20247;-82
2023/02/01 05:27:06;;;;;;;11.57;3.40;;;5.20;99.90;;;;;;5017139;28;20687;-83
2023/02/01 05:29:33;;;;;;;11.95;3.85;;;5.30;99.90;;;;;;5017952;28;20221;-82
2023/02/01 05:32:00;;;;;;;8.75;3.72;;;5.30;99.90;;;;;;5018949;28;20255;-82
2023/02/01 05:34:28;;;;;;;14.57;4.07;;;5.30;99.90;;;;;;5018502;28;20295;-82
2023/02/01 05:36:55;;;;;;;20.75;4.15;;;5.30;99.90;;;;;;5018109;28;20288;-81
2023/02/01 05:39:22;;;;;;;10.02;2.70;;;5.30;99.90;;;;;;5019049;28;20319;-81
2023/02/01 05:41:49;;;;;;;13.82;4.70;;;5.30;99.90;;;;;;5018914;28;20235;-83
2023/02/01 05:44:16;;;;;;;15.20;3.10;;;5.20;99.90;;;;;;5019802;28;20235;-83
2023/02/01 05:46:42;;;;;;;13.70;4.20;;;5.20;99.90;;;;;;5019404;28;20255;-82
2023/02/01 05:49:09;;;;;;;15.77;3.97;;;5.30;99.90;;;;;;5030182;28;20304;-80
2023/02/01 05:51:37;;;;;;;17.70;4.35;;;5.30;99.90;;;;;;5032925;28;20199;-80
2023/02/01 05:54:04;;;;;;;16.23;5.28;;;5.30;99.90;;;;;;5036029;28;20243;-80
2023/02/01 05:56:31;;;;;;;12.68;3.50;;;5.30;99.90;;;;;;5024483;28;20559;-82
2023/02/01 05:58:58;;;;;;;10.98;3.97;;;5.30;99.90;;;;;;5020553;28;20299;-80
2023/02/01 06:01:25;;;;;;;17.00;3.67;;;5.30;99.90;;;;;;5027226;28;20211;-81
2023/02/01 06:03:51;;;;;;;9.23;3.85;;;5.30;99.90;;;;;;5024370;28;20291;-82
2023/02/01 06:06:19;;;;;;;20.63;4.38;;;5.30;99.90;;;;;;5028854;28;20299;-83
2023/02/01 06:08:47;;;;;;;14.27;4.60;;;5.20;99.90;;;;;;5023930;28;20311;-82
2023/02/01 06:11:14;;;;;;;16.05;3.70;;;5.20;99.90;;;;;;5024341;28;20279;-83
2023/02/01 06:13:41;;;;;;;11.45;4.00;;;5.20;99.90;;;;;;5025126;28;20287;-83
2023/02/01 06:16:07;;;;;;;11.00;4.40;;;5.20;99.90;;;;;;5025016;28;20642;-83
2023/02/01 06:18:35;;;;;;;14.88;4.03;;;5.20;1.00;;;;;;5024131;28;20575;-83
2023/02/01 06:21:02;;;;;;;8.95;3.65;;;5.20;1.00;;;;;;5022456;28;20638;-83
2023/02/01 06:23:29;;;;;;;20.10;5.35;;;5.10;1.00;;;;;;5027483;28;20205;-83
2023/02/01 06:26:02;;;;;;;8.82;4.20;;;5.10;1.00;;;;;;5025506;28;20287;-83
2023/02/01 06:28:29;;;;;;;16.40;4.40;;;4.80;1.00;;;;;;5023738;28;20247;-83
2023/02/01 06:30:57;;;;;;;8.82;3.67;;;5.00;1.00;;;;;;5027612;28;20200;-83
2023/02/01 06:33:25;;;;;;;18.77;5.43;;;4.90;1.00;;;;;;5021659;28;20204;-83
2023/02/01 06:35:58;;;;;;;11.23;3.63;;;4.90;1.00;;;;;;5019534;28;20200;-83
2023/02/01 06:38:26;;;;;;;9.65;3.58;;;4.90;10.80;;;;;;5019696;28;20188;-82
2023/02/01 06:40:54;;;;;;;17.10;3.97;;;4.90;31.30;;;;;;5019495;28;20255;-83
2023/02/01 06:43:22;;;;;;;10.95;3.70;;;4.90;6.30;;;;;;5019238;28;20300;-83
2023/02/01 06:45:49;;;;;;;11.00;4.10;;;4.90;40.20;;;;;;5019401;28;20663;-83
2023/02/01 06:48:16;;;;;;;14.68;4.93;;;4.90;51.80;;;;;;5019418;28;20292;-84
2023/02/01 06:50:43;;;;;;;10.85;3.75;;;4.80;91.30;;;;;;5019803;28;20231;-83
2023/02/01 06:53:09;;;;;;;13.70;4.53;;;4.90;68.50;;;;;;5025543;28;20201;-82
2023/02/01 06:55:36;;;;;;;15.70;4.20;;;4.90;1.00;;;;;;5037739;28;20260;-80
2023/02/01 06:58:04;;;;;;;12.80;4.15;;;4.90;17.50;;;;;;5036314;28;20204;-83
2023/02/01 07:00:32;;;;;;;17.50;4.68;;;4.90;20.30;;;;;;5025599;28;20239;-83
2023/02/01 07:03:00;;;;;;;12.35;4.57;;;4.80;20.80;;;;;;5025468;28;20272;-82
2023/02/01 07:05:26;;;;;;;9.25;4.10;;;4.90;1.00;;;;;;5030076;28;20208;-81
2023/02/01 07:07:53;;;;;;;8.18;4.00;;;4.90;1.00;;;;;;5027011;28;20201;-82
2023/02/01 07:10:20;;;;;;;13.20;3.95;;;4.90;1.00;;;;;;5045547;22;20311;-84
2023/02/01 07:12:47;;;;;;;12.65;4.72;;;4.90;1.00;;;;;;5023402;28;20255;-83
2023/02/01 07:15:14;;;;;;;19.42;4.90;;;5.00;1.00;;;;;;5027585;28;20208;-83
2023/02/01 07:17:42;;;;;;;16.60;6.20;;;5.00;1.00;;;;;;5029061;28;20211;-82
2023/02/01 07:20:10;;;;;;;23.10;7.20;;;5.00;1.00;;;;;;5030110;28;20629;-83
2023/02/01 07:22:37;;;;;;;20.73;8.90;;;5.00;1.00;;;;;;5028813;28;20212;-83
2023/02/01 07:25:04;;;;;;;34.30;10.73;;;5.00;1.00;;;;;;5028492;28;20200;-83
2023/02/01 07:27:31;;;;;;;25.17;9.82;;;5.00;1.00;;;;;;5026203;28;20718;-83
2023/02/01 07:30:01;;;;;;;17.55;8.52;;;5.00;1.00;;;;;;5022589;28;20224;-83
2023/02/01 07:32:28;;;;;;;17.65;7.03;;;4.90;1.00;;;;;;5022706;28;20264;-83
2023/02/01 07:34:56;;;;;;;15.02;5.93;;;4.90;1.00;;;;;;5027779;28;20291;-83
2023/02/01 07:37:23;;;;;;;13.85;5.03;;;4.90;1.00;;;;;;5029795;28;20208;-83
2023/02/01 07:39:51;;;;;;;25.40;5.80;;;4.90;1.00;;;;;;5029083;28;20232;-82
2023/02/01 07:42:18;;;;;;;12.85;4.80;;;4.90;1.00;;;;;;5028631;28;20201;-83
2023/02/01 07:44:45;;;;;;;14.80;5.68;;;5.00;1.00;;;;;;5026557;28;20232;-83
2023/02/01 07:47:12;;;;;;;11.63;4.75;;;5.00;1.00;;;;;;5028614;28;20235;-83
2023/02/01 07:49:39;;;;;;;14.95;5.30;;;5.00;1.00;;;;;;5024818;28;20248;-84
2023/02/01 07:52:08;;;;;;;15.43;5.20;;;4.90;73.10;;;;;;5031788;28;20236;-83
2023/02/01 07:54:34;;;;;;;10.57;4.63;;;4.80;99.90;;;;;;5034817;28;20211;-82
2023/02/01 07:57:02;;;;;;;14.10;4.97;;;4.70;99.90;;;;;;5035275;28;20309;-84
2023/02/01 07:59:29;;;;;;;12.07;4.95;;;4.60;99.90;;;;;;5034079;28;20267;-83
2023/02/01 08:01:55;;;;;;;28.38;9.43;;;4.50;99.90;;;;;;5033799;28;20284;-83
2023/02/01 08:04:22;;;;;;;27.53;13.20;;;;;;;;;;5028385;28;20220;-83
2023/02/01 08:06:49;;;;;;;24.80;9.15;;;4.30;99.90;;;;;;5024891;28;20527;-83
2023/02/01 08:09:17;;;;;;;16.67;10.07;;;4.20;1.00;;;;;;5025164;28;20295;-83
2023/02/01 08:11:44;;;;;;;28.67;11.98;;;4.10;1.00;;;;;;5034789;28;20201;-80
2023/02/01 08:14:11;;;;;;;10.13;5.15;;;4.10;1.00;;;;;;5038231;28;20223;-80
2023/02/01 08:16:39;;;;;;;10.60;4.32;;;4.20;1.00;;;;;;5038226;28;20219;-79
2023/02/01 08:19:05;;;;;;;12.32;5.95;;;4.70;1.00;;;;;;5024025;28;20196;-83
2023/02/01 08:21:37;;;;;;;12.77;4.70;;;4.00;1.00;;;;;;5018626;28;20204;-83
2023/02/01 08:24:05;;;;;;;11.30;3.85;;;4.00;1.00;;;;;;5018549;28;20196;-83
2023/02/01 08:26:33;;;;;;;8.23;5.10;;;4.00;1.00;;;;;;5019490;28;20230;-83
2023/02/01 08:29:04;;;;;;;9.27;4.93;;;4.30;1.00;;;;;;5019701;28;20201;-83
2023/02/01 08:31:31;;;;;;;10.18;5.13;;;4.00;1.00;;;;;;5022798;28;20189;-82
2023/02/01 08:34:00;;;;;;;8.70;4.13;;;4.00;1.00;;;;;;5022476;28;20300;-82
2023/02/01 08:36:29;;;;;;;8.60;4.20;;;4.00;1.00;;;;;;5022330;28;20240;-81
2023/02/01 08:38:56;;;;;;;10.95;4.40;;;4.30;1.00;;;;;;5022262;28;20208;-82
2023/02/01 08:41:25;;;;;;;9.63;4.68;;;4.00;1.00;;;;;;5022664;28;20220;-81
2023/02/01 08:43:54;;;;;;;6.55;4.90;;;4.00;1.00;;;;;;5024795;28;20263;-83
2023/02/01 08:46:21;;;;;;;11.30;5.30;;;4.10;1.00;;;;;;5024711;28;20232;-81
2023/02/01 08:48:48;;;;;;;11.77;4.88;;;4.10;1.00;;;;;;5021558;28;20192;-81
2023/02/01 08:51:18;;;;;;;10.30;4.40;;;4.00;1.00;;;;;;5021186;28;20224;-81
2023/02/01 08:53:45;;;;;;;13.95;4.80;;;4.10;1.00;;;;;;5021447;28;20276;-80
2023/02/01 08:56:14;;;;;;;15.05;4.32;;;4.40;90.90;;;;;;5020250;28;20217;-80
2023/02/01 08:58:41;;;;;;;11.02;4.38;;;4.20;4.20;;;;;;5020606;28;20211;-80
2023/02/01 09:01:14;;;;;;;9.48;4.10;;;4.20;18.50;;;;;;5020968;28;20232;-80
2023/02/01 09:03:41;;;;;;;9.27;3.67;;;4.00;47.40;;;;;;5025367;28;20189;-80
2023/02/01 09:06:10;;;;;;;4.90;3.22;;;4.20;8.00;;;;;;5024246;28;20304;-81
2023/02/01 09:08:38;;;;;;;5.10;2.90;;;4.10;7.70;;;;;;5023659;28;20213;-81
2023/02/01 09:11:09;;;;;;;3.08;2.17;;;4.20;7.60;;;;;;5024848;28;20229;-80
2023/02/01 09:13:36;;;;;;;6.55;3.30;;;4.20;18.00;;;;;;5028947;28;20256;-81
2023/02/01 09:16:03;;;;;;;4.65;3.22;;;4.20;24.90;;;;;;5027372;28;20204;-81
2023/02/01 09:18:31;;;;;;;5.50;2.55;;;4.20;25.80;;;;;;5024128;28;20209;-81
2023/02/01 09:20:58;;;;;;;6.38;2.60;;;4.20;20.80;;;;;;5021917;28;20311;-81
2023/02/01 09:23:25;;;;;;;3.95;2.00;;;4.20;15.90;;;;;;5020856;28;20690;-81
2023/02/01 09:25:52;;;;;;;7.72;3.20;;;4.20;7.90;;;;;;5020798;28;20295;-80
2023/02/01 09:28:18;;;;;;;9.30;3.53;;;4.30;6.30;;;;;;5020573;28;20577;-81
2023/02/01 09:30:47;;;;;;;5.50;3.10;;;4.30;8.00;;;;;;5020657;28;20231;-81
2023/02/01 09:33:14;;;;;;;3.03;2.83;;;4.40;6.60;;;;;;5022986;28;20691;-81
2023/02/01 09:35:42;;;;;;;4.10;2.25;;;4.40;10.20;;;;;;5020165;28;20300;-81
2023/02/01 09:38:09;;;;;;;6.22;2.35;;;4.40;14.40;;;;;;5031870;28;20252;-80
2023/02/01 09:40:36;;;;;;;3.75;2.38;;;4.40;6.00;;;;;;5033737;28;20300;-81
2023/02/01 09:43:21;;;;;;;1.98;1.70;;;4.40;1.00;;;;;;5030936;28;20658;-80
2023/02/01 09:45:56;;;;;;;4.85;1.85;;;4.50;1.00;;;;;;5026164;28;20199;-81
2023/02/01 09:48:28;;;;;;;1.75;1.52;;;4.50;1.00;;;;;;5023653;28;20651;-80
2023/02/01 09:50:58;;;;;;;2.88;2.38;;;4.50;1.00;;;;;;5021591;28;20239;-80
2023/02/01 09:53:30;;;;;;;4.00;1.45;;;4.50;1.00;;;;;;5024371;28;20213;-81
2023/02/01 09:56:03;;;;;;;2.10;1.75;;;4.50;1.00;;;;;;5026996;28;20284;-79
2023/02/01 09:58:38;;;;;;;3.78;2.20;;;4.50;1.00;;;;;;5028244;28;20189;-81
2023/02/01 10:01:14;;;;;;;3.80;1.80;;;4.40;1.00;;;;;;5027837;28;20299;-80
2023/02/01 10:03:41;;;;;;;3.35;2.20;;;4.50;1.00;;;;;;5024095;28;20557;-80
2023/02/01 10:06:29;;;;;;;7.97;2.65;;;4.50;1.00;;;;;;5022570;28;20208;-80
2023/02/01 10:09:14;;;;;;;2.30;1.67;;;4.70;1.00;;;;;;5020972;28;20215;-80
2023/02/01 10:11:49;;;;;;;8.38;3.00;;;4.50;1.00;;;;;;5022951;28;20191;-81
2023/02/01 10:14:31;;;;;;;2.92;2.10;;;4.40;1.00;;;;;;5022203;28;20186;-81
2023/02/01 10:17:08;;;;;;;1.98;1.52;;;4.50;1.00;;;;;;5021070;28;20197;-80
2023/02/01 10:19:43;;;;;;;2.28;1.83;;;4.50;1.00;;;;;;5022918;28;20663;-81
2023/02/01 10:22:21;;;;;;;4.80;2.45;;;4.50;1.00;;;;;;5021327;28;20191;-81
2023/02/01 10:24:57;;;;;;;4.30;1.92;;;4.20;1.00;;;;;;5023452;28;20192;-81
2023/02/01 10:27:29;;;;;;;3.85;1.60;;;4.50;1.00;;;;;;5024897;28;20220;-80
2023/02/01 10:29:59;;;;;;;5.80;1.77;;;4.50;1.00;;;;;;5021585;28;20221;-81
2023/02/01 10:32:32;;;;;;;4.30;2.08;;;4.50;1.00;;;;;;5021602;28;20212;-80
2023/02/01 10:35:01;;;;;;;2.72;2.10;;;4.50;1.00;;;;;;5022892;28;20199;-80
2023/02/01 10:37:31;;;;;;;5.30;1.98;;;4.50;1.00;;;;;;5019920;28;20709;-80
2023/02/01 10:40:02;;;;;;;8.35;3.42;;;4.60;1.00;;;;;;5019982;28;20775;-81
2023/02/01 10:42:31;;;;;;;4.13;2.25;;;4.60;1.00;;;;;;5020895;28;20195;-81
2023/02/01 10:45:02;;;;;;;5.82;2.50;;;4.70;1.00;;;;;;5020433;28;20208;-82
2023/02/01 10:47:29;;;;;;;6.78;2.50;;;4.70;1.00;;;;;;5020398;28;20195;-81
2023/02/01 10:50:04;;;;;;;2.85;2.13;;;4.70;1.00;;;;;;5025563;28;20650;-81
2023/02/01 10:52:39;;;;;;;12.80;2.33;;;4.70;1.00;;;;;;5019194;28;20227;-81
2023/02/01 10:55:28;;;;;;;9.75;2.42;;;4.50;1.00;;;;;;5020426;28;20539;-80
2023/02/01 10:57:59;;;;;;;3.38;2.30;;;4.50;1.00;;;;;;5021722;28;20275;-81
2023/02/01 11:00:26;;;;;;;5.90;2.80;;;4.30;1.00;;;;;;5026581;28;20233;-81
2023/02/01 11:02:54;;;;;;;2.50;2.30;;;4.30;1.00;;;;;;5021859;28;20189;-80
2023/02/01 11:05:22;;;;;;;4.93;2.88;;;4.30;1.00;;;;;;5019436;28;20204;-81
2023/02/01 11:07:55;;;;;;;5.28;2.40;;;4.30;1.00;;;;;;5018654;28;20200;-81
2023/02/01 11:10:40;;;;;;;2.35;2.13;;;4.30;1.00;;;;;;5018498;28;20285;-82
2023/02/01 11:13:15;;;;;;;3.20;2.90;;;4.30;11.00;;;;;;5020976;28;20204;-83
2023/02/01 11:15:45;;;;;;;6.45;2.22;;;4.50;24.60;;;;;;5021747;28;20214;-81
2023/02/01 11:18:18;;;;;;;6.80;2.65;;;4.50;18.90;;;;;;5023350;28;20204;-80
2023/02/01 11:20:49;;;;;;;3.67;2.45;;;4.60;10.50;;;;;;5023861;28;20243;-80
2023/02/01 11:23:18;;;;;;;6.10;2.90;;;4.60;1.00;;;;;;5032071;28;20211;-79
2023/02/01 11:25:51;;;;;;;4.00;2.85;;;4.70;1.00;;;;;;5034852;28;20224;-80
2023/02/01 11:28:22;;;;;;;8.15;3.72;;;4.80;1.00;;;;;;5033620;28;20205;-81
2023/02/01 11:30:49;;;;;;;7.47;4.50;;;4.90;1.00;;;;;;5022953;28;20260;-80
2023/02/01 11:33:19;;;;;;;6.15;3.20;;;5.00;1.00;;;;;;5020999;28;20295;-80
2023/02/01 11:35:48;;;;;;;5.57;2.63;;;5.10;1.00;;;;;;5019974;28;20209;-80
2023/02/01 11:38:27;;;;;;;14.48;3.40;;;5.20;1.00;;;;;;5018709;28;20215;-79
2023/02/01 11:40:54;;;;;;;5.35;3.00;;;5.30;1.00;;;;;;5017130;28;20267;-81
2023/02/01 11:43:25;;;;;;;4.82;2.45;;;5.40;1.00;;;;;;5026855;28;20205;-80
2023/02/01 11:45:57;;;;;;;5.25;2.33;;;5.60;1.00;;;;;;5028478;28;20222;-80
2023/02/01 11:48:26;;;;;;;4.38;2.58;;;5.80;1.00;;;;;;5026329;28;20210;-81
2023/02/01 11:51:08;;;;;;;7.53;3.60;;;5.80;1.00;;;;;;5019665;28;20220;-80
2023/02/01 11:53:51;;;;;;;7.50;3.17;;;5.80;1.00;;;;;;5019323;28;20199;-80
2023/02/01 11:56:26;;;;;;;3.88;2.72;;;5.80;1.00;;;;;;5018125;28;20667;-81
2023/02/01 11:59:20;;;;;;;7.32;2.50;;;6.10;1.00;;;;;;5019924;28;20184;-81
2023/02/01 12:02:18;;;;;;;8.70;3.47;;;5.90;1.00;;;;;;5028036;28;20268;-79
2023/02/01 12:05:15;;;;;;;6.45;2.00;;;6.00;99.90;;;;;;5032543;28;20621;-80
2023/02/01 12:07:55;;;;;;;5.45;3.15;;;6.00;99.90;;;;;;5029928;28;20188;-80
2023/02/01 12:10:34;;;;;;;6.55;2.22;;;6.00;99.90;;;;;;5023937;28;20228;-80
2023/02/01 12:13:15;;;;;;;8.15;3.17;;;6.20;99.90;;;;;;5027368;28;20192;-81
2023/02/01 12:15:57;;;;;;;11.35;2.80;;;6.30;99.90;;;;;;5026157;28;20199;-80
2023/02/01 12:18:49;;;;;;;8.95;2.95;;;6.10;99.90;;;;;;5023694;28;20276;-82
2023/02/01 12:21:29;;;;;;;5.28;2.88;;;6.10;99.90;;;;;;5025468;28;20263;-81
2023/02/01 12:24:26;;;;;;;4.47;3.00;;;6.20;99.90;;;;;;5022537;28;20193;-81
2023/02/01 12:27:04;;;;;;;6.55;2.78;;;6.10;99.90;;;;;;5018470;28;20296;-81
2023/02/01 12:29:54;;;;;;;2.72;2.50;;;6.10;99.90;;;;;;5023665;28;20315;-81
2023/02/01 12:32:42;;;;;;;3.40;2.70;;;6.00;99.90;;;;;;5025314;28;20216;-81
2023/02/01 12:35:34;;;;;;;7.68;2.60;;;6.00;99.90;;;;;;5023220;28;20253;-81
2023/02/01 12:38:17;;;;;;;9.85;2.95;;;6.00;99.90;;;;;;5022414;28;20220;-82
2023/02/01 12:41:02;;;;;;;4.50;2.38;;;6.00;99.90;;;;;;5020963;28;20638;-81
2023/02/01 12:43:38;;;;;;;8.48;3.03;;;5.90;99.90;;;;;;5021952;28;20267;-81
2023/02/01 12:46:11;;;;;;;6.47;2.60;;;5.70;99.90;;;;;;5022379;28;20192;-81
2023/02/01 12:48:42;;;;;;;11.25;3.10;;;6.00;79.90;;;;;;5022073;28;20215;-80
2023/02/01 12:51:13;;;;;;;8.20;2.53;;;6.00;1.00;;;;;;5021368;28;20223;-81
2023/02/01 12:53:48;;;;;;;7.88;3.78;;;6.10;1.00;;;;;;5022151;28;20184;-81
2023/02/01 12:56:22;;;;;;;9.35;3.05;;;6.20;1.00;;;;;;5025685;28;20184;-81
2023/02/01 12:58:54;;;;;;;6.10;2.53;;;6.20;1.00;;;;;;5024621;28;20199;-81
2023/02/01 13:01:25;;;;;;;4.90;3.08;;;6.20;1.00;;;;;;5024585;28;20209;-81
2023/02/01 13:04:00;;;;;;;10.95;2.90;;;6.20;1.00;;;;;;5023515;28;20211;-80
2023/02/01 13:06:31;;;;;;;5.97;2.80;;;6.20;1.00;;;;;;5023446;28;20251;-82
2023/02/01 13:09:05;;;;;;;3.60;2.75;;;6.00;1.00;;;;;;5022814;28;20655;-80
2023/02/01 13:11:35;;;;;;;14.45;3.72;;;6.20;1.00;;;;;;5048931;22;20239;-88
2023/02/01 13:14:08;;;;;;;12.45;2.20;;;6.20;1.00;;;;;;5036922;28;20196;-87
2023/02/01 13:16:41;;;;;;;7.30;2.75;;;6.20;1.00;;;;;;5037086;28;20208;-87
2023/02/01 13:19:17;;;;;;;10.55;3.67;;;6.20;1.00;;;;;;5034137;28;20212;-87
2023/02/01 13:21:48;;;;;;;9.85;2.40;;;5.90;1.00;;;;;;5028852;28;20296;-87
2023/02/01 13:24:27;;;;;;;6.75;2.92;;;6.30;1.00;;;;;;5024816;28;20594;-88
2023/02/01 13:26:55;;;;;;;5.00;2.70;;;6.30;1.00;;;;;;5032017;28;20284;-88
2023/02/01 13:29:28;;;;;;;2.38;2.17;;;6.50;1.00;;;;;;5021394;28;20204;-87
2023/02/01 13:32:23;;;;;;;4.65;2.67;;;6.20;1.00;;;;;;5033380;28;20240;-88
2023/02/01 13:35:25;;;;;;;8.50;2.97;;;6.00;1.00;;;;;;5036783;28;20196;-88
2023/02/01 13:38:26;;;;;;;2.80;2.10;;;6.20;1.00;;;;;;5035650;28;20192;-88
2023/02/01 13:41:05;;;;;;;8.60;2.22;;;6.20;1.00;;;;;;5026766;28;20231;-88